createdAt,value
2023-03-18T00:01:04.210Z,65.84
2023-03-18T00:02:05.921Z,65.67
2023-03-18T00:03:07.540Z,66.13
2023-03-18T00:04:09.622Z,66.03
2023-03-18T00:05:12.989Z,65.75
2023-03-18T00:06:18.530Z,65.91
2023-03-18T00:07:20.151Z,66.04
2023-03-18T00:08:21.967Z,65.97
2023-03-18T00:09:24.064Z,66.55
2023-03-18T00:10:25.579Z,66.19
2023-03-18T00:11:27.313Z,65.72
2023-03-18T00:12:28.857Z,65.95
2023-03-18T00:13:30.384Z,65.88
2023-03-18T00:14:32.957Z,64.84
2023-03-18T00:15:34.510Z,65.27
2023-03-18T00:16:36.944Z,64.88
2023-03-18T00:17:40.262Z,64.75
2023-03-18T00:18:42.514Z,65.42
2023-03-18T00:19:44.273Z,65.39
2023-03-18T00:20:46.067Z,65.35
2023-03-18T00:21:47.703Z,65.24
2023-03-18T00:22:49.325Z,64.96
2023-03-18T00:23:56.365Z,65.94
2023-03-18T00:24:57.953Z,66.28
2023-03-18T00:26:01.385Z,65.85
2023-03-18T00:27:03.670Z,65.99
2023-03-18T00:28:07.116Z,65.50
2023-03-18T00:29:08.840Z,65.74
2023-03-18T00:30:12.583Z,64.97
2023-03-18T00:31:14.251Z,65.34
2023-03-18T00:32:15.869Z,65.25
2023-03-18T00:33:18.928Z,64.55
2023-03-18T00:34:21.011Z,64.95
2023-03-18T00:35:23.926Z,64.27
2023-03-18T00:36:28.517Z,64.24
2023-03-18T00:37:30.738Z,63.80
2023-03-18T00:38:33.721Z,63.90
2023-03-18T00:39:35.696Z,63.73
2023-03-18T00:40:43.410Z,63.04
2023-03-18T00:41:45.363Z,63.26
2023-03-18T00:42:57.490Z,63.18
2023-03-18T00:43:59.617Z,62.66
2023-03-18T00:45:01.195Z,62.76
2023-03-18T00:46:03.607Z,63.02
2023-03-18T00:47:05.564Z,62.72
2023-03-18T00:48:07.896Z,62.40
2023-03-18T00:49:09.710Z,62.54
2023-03-18T00:50:12.452Z,62.20
2023-03-18T00:51:17.143Z,61.97
2023-03-18T00:52:19.704Z,61.84
2023-03-18T00:53:21.573Z,61.82
2023-03-18T00:54:24.862Z,61.87
2023-03-18T00:55:27.471Z,61.67
2023-03-18T00:56:32.026Z,61.67
2023-03-18T00:57:33.954Z,61.34
2023-03-18T00:58:37.200Z,61.87
2023-03-18T00:59:38.748Z,62.01
2023-03-18T01:00:41.398Z,62.04
2023-03-18T01:01:43.047Z,62.49
2023-03-18T01:02:44.724Z,62.89
2023-03-18T01:03:47.805Z,62.94
2023-03-18T01:04:51.014Z,63.82
2023-03-18T01:05:53.567Z,64.53
2023-03-18T01:06:55.092Z,65.00
2023-03-18T01:07:57.834Z,64.92
2023-03-18T01:09:01.462Z,65.51
2023-03-18T01:10:03.371Z,66.82
2023-03-18T01:11:05.724Z,67.13
2023-03-18T01:12:09.164Z,68.23
2023-03-18T01:13:10.694Z,67.98
2023-03-18T01:14:12.448Z,68.27
2023-03-18T01:15:17.749Z,67.82
2023-03-18T01:16:21.022Z,68.59
2023-03-18T01:17:22.632Z,69.08
2023-03-18T01:18:24.566Z,68.64
2023-03-18T01:19:26.748Z,69.13
2023-03-18T01:20:29.283Z,68.86
2023-03-18T01:21:30.877Z,69.15
2023-03-18T01:22:32.666Z,68.91
2023-03-18T01:23:35.345Z,68.98
2023-03-18T01:24:36.979Z,68.35
2023-03-18T01:25:38.814Z,68.87
2023-03-18T01:26:40.397Z,69.23
2023-03-18T01:27:42.754Z,68.83
2023-03-18T01:28:44.346Z,69.22
2023-03-18T01:29:46.920Z,67.93
2023-03-18T01:30:49.273Z,68.24
2023-03-18T01:31:51.407Z,68.17
2023-03-18T01:32:54.075Z,68.20
2023-03-18T01:33:56.184Z,68.78
2023-03-18T01:34:58.252Z,68.54
2023-03-18T01:36:02.407Z,68.05
2023-03-18T01:37:04.086Z,68.59
2023-03-18T01:38:06.301Z,69.57
2023-03-18T01:39:08.536Z,68.60
2023-03-18T01:40:12.004Z,69.29
2023-03-18T01:41:13.641Z,68.70
2023-03-18T01:42:18.180Z,69.50
2023-03-18T01:43:26.390Z,69.43
2023-03-18T01:44:28.132Z,68.22
2023-03-18T01:45:30.684Z,68.91
2023-03-18T01:46:41.145Z,69.89
2023-03-18T01:47:44.811Z,69.54
2023-03-18T01:48:46.470Z,69.84
2023-03-18T01:49:50.184Z,69.95
2023-03-18T01:50:59.306Z,70.34
2023-03-18T01:52:02.993Z,69.35
2023-03-18T01:53:09.321Z,70.21
2023-03-18T01:54:13.062Z,70.32
2023-03-18T01:55:20.919Z,70.73
2023-03-18T01:56:22.476Z,70.37
2023-03-18T01:57:24.244Z,70.75
2023-03-18T01:58:29.713Z,71.54
2023-03-18T01:59:34.197Z,71.10
2023-03-18T02:00:41.898Z,71.99
2023-03-18T02:01:55.999Z,71.41
2023-03-18T02:02:58.365Z,72.50
2023-03-18T02:04:01.118Z,71.96
2023-03-18T02:05:06.704Z,71.20
2023-03-18T02:06:10.134Z,70.96
2023-03-18T02:07:21.671Z,70.41
2023-03-18T02:08:23.433Z,70.36
2023-03-18T02:09:25.061Z,69.47
2023-03-18T02:10:30.244Z,69.35
2023-03-18T02:11:34.722Z,69.78
2023-03-18T02:12:41.756Z,68.54
2023-03-18T02:13:46.018Z,69.58
2023-03-18T02:14:49.349Z,68.38
2023-03-18T02:15:57.720Z,69.68
2023-03-18T02:17:10.448Z,69.59
2023-03-18T02:18:21.040Z,70.04
2023-03-18T02:19:54.887Z,70.28
2023-03-18T02:21:08.309Z,70.34
2023-03-18T02:22:45.108Z,70.66
2023-03-18T02:24:06.182Z,71.23
2023-03-18T02:25:23.030Z,70.53
2023-03-18T02:26:48.136Z,71.23
2023-03-18T02:27:54.867Z,70.71
2023-03-18T02:29:03.162Z,70.41
2023-03-18T02:30:11.403Z,70.86
2023-03-18T02:31:16.710Z,70.89
2023-03-18T02:32:20.772Z,70.27
2023-03-18T02:33:26.702Z,71.19
2023-03-18T02:34:29.157Z,71.31
2023-03-18T02:35:32.237Z,71.00
2023-03-18T02:36:35.726Z,70.22
2023-03-18T02:37:38.281Z,70.83
2023-03-18T02:38:44.109Z,69.93
2023-03-18T02:39:45.641Z,70.42
2023-03-18T02:40:47.214Z,70.96
2023-03-18T02:41:49.015Z,70.96
2023-03-18T02:42:50.972Z,70.00
2023-03-18T02:43:53.430Z,70.40
2023-03-18T02:44:55.551Z,70.08
2023-03-18T02:46:07.302Z,70.36
2023-03-18T02:47:13.382Z,70.76
2023-03-18T02:48:18.980Z,71.00
2023-03-18T02:49:21.670Z,72.04
2023-03-18T02:50:24.443Z,71.50
2023-03-18T02:51:27.242Z,71.92
2023-03-18T02:52:28.812Z,71.08
2023-03-18T02:53:30.430Z,70.57
2023-03-18T02:54:32.877Z,70.16
2023-03-18T02:55:34.435Z,68.96
2023-03-18T02:56:37.950Z,68.95
2023-03-18T02:57:39.549Z,68.88
2023-03-18T02:58:41.255Z,68.74
2023-03-18T02:59:42.783Z,67.78
2023-03-18T03:00:44.614Z,68.64
2023-03-18T03:01:49.118Z,68.66
2023-03-18T03:02:50.986Z,68.25
2023-03-18T03:03:52.621Z,67.94
2023-03-18T03:04:54.244Z,68.13
2023-03-18T03:05:56.466Z,67.77
2023-03-18T03:07:01.437Z,68.88
2023-03-18T03:08:03.088Z,68.19
2023-03-18T03:09:06.963Z,69.33
2023-03-18T03:10:09.413Z,70.42
2023-03-18T03:11:11.590Z,71.78
2023-03-18T03:12:13.777Z,74.11
2023-03-18T03:13:15.690Z,75.03
2023-03-18T03:14:17.373Z,76.24
2023-03-18T03:15:19.387Z,76.37
2023-03-18T03:16:21.345Z,77.05
2023-03-18T03:17:22.877Z,77.79
2023-03-18T03:18:24.595Z,77.85
2023-03-18T03:19:26.125Z,78.78
2023-03-18T03:20:28.528Z,79.12
2023-03-18T03:21:30.536Z,79.24
2023-03-18T03:22:33.219Z,79.35
2023-03-18T03:23:35.703Z,79.46
2023-03-18T03:24:37.527Z,78.99
2023-03-18T03:25:40.136Z,77.51
2023-03-18T03:26:41.725Z,76.57
2023-03-18T03:27:43.711Z,74.99
2023-03-18T03:28:46.048Z,75.16
2023-03-18T03:29:47.772Z,74.64
2023-03-18T03:30:49.587Z,74.34
2023-03-18T03:31:51.474Z,74.60
2023-03-18T03:32:53.287Z,73.81
2023-03-18T03:33:54.879Z,73.76
2023-03-18T03:34:56.446Z,72.88
2023-03-18T03:35:58.303Z,72.53
2023-03-18T03:36:59.957Z,73.13
2023-03-18T03:38:02.079Z,71.59
2023-03-18T03:39:04.266Z,71.93
2023-03-18T03:40:06.424Z,71.30
2023-03-18T03:41:10.416Z,71.58
2023-03-18T03:42:11.965Z,70.75
2023-03-18T03:43:15.833Z,71.32
2023-03-18T03:44:17.372Z,71.33
2023-03-18T03:45:20.187Z,70.96
2023-03-18T03:46:21.867Z,72.16
2023-03-18T03:47:23.716Z,72.83
2023-03-18T03:48:25.345Z,72.68
2023-03-18T03:49:27.224Z,73.02
2023-03-18T03:50:29.173Z,72.36
2023-03-18T03:51:30.815Z,73.53
2023-03-18T03:52:32.928Z,74.48
2023-03-18T03:53:36.129Z,74.59
2023-03-18T03:54:38.278Z,74.01
2023-03-18T03:55:39.962Z,74.33
2023-03-18T03:56:42.329Z,74.07
2023-03-18T03:57:44.821Z,74.89
2023-03-18T03:58:46.829Z,74.50
2023-03-18T03:59:48.389Z,75.30
2023-03-18T04:00:49.937Z,74.78
2023-03-18T04:01:51.982Z,74.77
2023-03-18T04:02:54.376Z,75.77
2023-03-18T04:03:56.565Z,75.25
2023-03-18T04:04:58.137Z,76.25
2023-03-18T04:05:59.638Z,76.70
2023-03-18T04:07:01.230Z,76.08
2023-03-18T04:08:03.067Z,76.19
2023-03-18T04:09:04.719Z,75.89
2023-03-18T04:10:09.670Z,75.86
2023-03-18T04:11:11.230Z,76.10
2023-03-18T04:12:13.834Z,75.86
2023-03-18T04:13:15.364Z,75.65
2023-03-18T04:14:17.365Z,75.38
2023-03-18T04:15:21.972Z,75.42
2023-03-18T04:16:23.582Z,75.07
2023-03-18T04:17:25.646Z,74.17
2023-03-18T04:18:27.228Z,74.52
2023-03-18T04:19:29.133Z,73.56
2023-03-18T04:20:30.922Z,73.17
2023-03-18T04:21:33.070Z,72.89
2023-03-18T04:22:34.984Z,72.83
2023-03-18T04:23:36.581Z,72.85
2023-03-18T04:24:38.233Z,72.98
2023-03-18T04:25:40.049Z,72.04
2023-03-18T04:26:41.680Z,71.83
2023-03-18T04:27:43.422Z,72.38
2023-03-18T04:28:45.128Z,72.28
2023-03-18T04:29:46.838Z,72.62
2023-03-18T04:30:48.947Z,72.42
2023-03-18T04:31:51.199Z,71.32
2023-03-18T04:32:54.906Z,72.03
2023-03-18T04:33:57.431Z,71.40
2023-03-18T04:34:59.294Z,71.00
2023-03-18T04:36:01.059Z,70.27
2023-03-18T04:37:03.827Z,70.93
2023-03-18T04:38:05.866Z,70.92
2023-03-18T04:39:09.598Z,70.82
2023-03-18T04:40:12.473Z,69.98
2023-03-18T04:41:14.020Z,69.51
2023-03-18T04:42:16.543Z,69.69
2023-03-18T04:43:18.122Z,70.08
2023-03-18T04:44:19.632Z,70.20
2023-03-18T04:45:21.136Z,69.00
2023-03-18T04:46:22.928Z,69.39
2023-03-18T04:47:24.536Z,69.73
2023-03-18T04:48:27.176Z,69.17
2023-03-18T04:49:29.174Z,69.15
2023-03-18T04:50:30.980Z,70.29
2023-03-18T04:51:32.584Z,69.45
2023-03-18T04:52:34.822Z,69.41
2023-03-18T04:53:37.388Z,69.27
2023-03-18T04:54:39.733Z,69.00
2023-03-18T04:55:41.698Z,69.53
2023-03-18T04:56:43.836Z,69.17
2023-03-18T04:57:45.758Z,69.06
2023-03-18T04:58:47.633Z,69.14
2023-03-18T04:59:49.218Z,69.92
2023-03-18T05:00:50.805Z,69.66
2023-03-18T05:01:52.402Z,68.80
2023-03-18T05:02:54.074Z,69.30
2023-03-18T05:03:56.121Z,68.85
2023-03-18T05:04:57.996Z,68.99
2023-03-18T05:05:59.620Z,68.23
2023-03-18T05:07:01.215Z,68.25
2023-03-18T05:08:02.889Z,68.75
2023-03-18T05:09:05.673Z,67.92
2023-03-18T05:10:08.353Z,68.71
2023-03-18T05:11:09.900Z,68.82
2023-03-18T05:12:13.622Z,69.51
2023-03-18T05:13:16.212Z,69.17
2023-03-18T05:14:17.840Z,69.57
2023-03-18T05:15:19.470Z,69.67
2023-03-18T05:16:21.125Z,69.33
2023-03-18T05:17:22.728Z,69.55
2023-03-18T05:18:24.324Z,68.71
2023-03-18T05:19:25.930Z,68.73
2023-03-18T05:20:28.159Z,69.86
2023-03-18T05:21:30.565Z,69.26
2023-03-18T05:22:36.052Z,70.02
2023-03-18T05:23:39.134Z,69.00
2023-03-18T05:24:41.665Z,69.26
2023-03-18T05:25:43.313Z,69.72
2023-03-18T05:26:44.943Z,69.71
2023-03-18T05:27:47.703Z,70.67
2023-03-18T05:28:49.295Z,71.41
2023-03-18T05:29:50.837Z,71.89
2023-03-18T05:30:53.029Z,71.36
2023-03-18T05:31:54.614Z,71.14
2023-03-18T05:32:56.409Z,71.02
2023-03-18T05:33:58.025Z,71.65
2023-03-18T05:34:59.616Z,71.49
2023-03-18T05:36:01.856Z,71.29
2023-03-18T05:37:08.899Z,72.44
2023-03-18T05:38:10.489Z,72.59
2023-03-18T05:39:12.024Z,73.00
2023-03-18T05:40:14.740Z,73.16
2023-03-18T05:41:16.325Z,73.18
2023-03-18T05:42:18.246Z,73.50
2023-03-18T05:43:20.196Z,73.77
2023-03-18T05:44:21.729Z,73.99
2023-03-18T05:45:24.420Z,73.74
2023-03-18T05:46:27.098Z,73.22
2023-03-18T05:47:28.672Z,73.79
2023-03-18T05:48:30.206Z,73.95
2023-03-18T05:49:32.122Z,74.15
2023-03-18T05:50:37.117Z,74.26
2023-03-18T05:51:39.320Z,74.13
2023-03-18T05:52:40.915Z,73.70
2023-03-18T05:53:42.586Z,73.97
2023-03-18T05:54:44.783Z,73.33
2023-03-18T05:55:46.667Z,73.21
2023-03-18T05:56:48.402Z,73.95
2023-03-18T05:57:50.048Z,73.90
2023-03-18T05:58:52.157Z,73.24
2023-03-18T05:59:53.760Z,72.61
2023-03-18T06:00:56.159Z,72.76
2023-03-18T06:01:57.909Z,72.54
2023-03-18T06:03:01.222Z,72.76
2023-03-18T06:04:03.130Z,72.90
2023-03-18T06:05:05.121Z,72.93
2023-03-18T06:06:06.858Z,72.95
2023-03-18T06:07:08.483Z,72.64
2023-03-18T06:08:10.933Z,72.74
2023-03-18T06:09:13.471Z,73.15
2023-03-18T06:10:15.360Z,73.12
2023-03-18T06:11:17.107Z,73.97
2023-03-18T06:12:20.357Z,73.09
2023-03-18T06:13:22.577Z,73.45
2023-03-18T06:14:29.532Z,73.28
2023-03-18T06:15:32.412Z,73.63
2023-03-18T06:16:35.332Z,74.16
2023-03-18T06:17:37.269Z,74.38
2023-03-18T06:18:39.110Z,74.86
2023-03-18T06:19:40.796Z,76.04
2023-03-18T06:20:42.467Z,77.63
2023-03-18T06:21:44.129Z,77.65
2023-03-18T06:22:49.674Z,77.11
2023-03-18T06:23:51.986Z,78.18
2023-03-18T06:24:54.139Z,78.25
2023-03-18T06:25:56.139Z,78.47
2023-03-18T06:26:57.798Z,78.48
2023-03-18T06:27:59.313Z,78.26
2023-03-18T06:29:00.908Z,78.15
2023-03-18T06:30:04.738Z,77.88
2023-03-18T06:31:06.478Z,79.15
2023-03-18T06:32:08.257Z,78.01
2023-03-18T06:33:10.816Z,78.74
2023-03-18T06:34:13.053Z,78.13
2023-03-18T06:35:15.585Z,77.66
2023-03-18T06:36:17.793Z,77.85
2023-03-18T06:37:20.994Z,77.05
2023-03-18T06:38:22.854Z,76.94
2023-03-18T06:39:24.799Z,75.76
2023-03-18T06:40:26.422Z,75.48
2023-03-18T06:41:28.142Z,76.94
2023-03-18T06:42:29.785Z,76.01
2023-03-18T06:43:31.863Z,75.70
2023-03-18T06:44:33.468Z,75.80
2023-03-18T06:45:35.179Z,73.44
2023-03-18T06:46:37.294Z,75.00
2023-03-18T06:47:40.021Z,74.89
2023-03-18T06:48:42.318Z,74.17
2023-03-18T06:49:43.899Z,73.60
2023-03-18T06:50:46.474Z,73.89
2023-03-18T06:51:48.678Z,73.39
2023-03-18T06:52:50.211Z,72.78
2023-03-18T06:53:51.899Z,72.64
2023-03-18T06:54:53.513Z,71.86
2023-03-18T06:55:56.773Z,71.31
2023-03-18T06:56:58.868Z,71.24
2023-03-18T06:58:00.484Z,70.42
2023-03-18T06:59:02.094Z,69.59
2023-03-18T07:00:05.193Z,69.11
2023-03-18T07:01:08.377Z,68.99
2023-03-18T07:02:11.066Z,67.98
2023-03-18T07:03:13.517Z,67.36
2023-03-18T07:04:15.384Z,67.26
2023-03-18T07:05:17.245Z,66.38
2023-03-18T07:06:18.891Z,65.84
2023-03-18T07:07:21.182Z,65.62
2023-03-18T07:08:23.356Z,65.28
2023-03-18T07:09:24.879Z,64.65
2023-03-18T07:10:29.960Z,65.32
2023-03-18T07:11:31.575Z,66.60
2023-03-18T07:12:33.148Z,65.00
2023-03-18T07:13:34.742Z,64.35
2023-03-18T07:14:36.269Z,64.57
2023-03-18T07:15:39.216Z,64.75
2023-03-18T07:16:41.323Z,63.96
2023-03-18T07:17:43.542Z,69.12
2023-03-18T07:18:45.247Z,72.71
2023-03-18T07:19:46.980Z,68.26
2023-03-18T07:20:49.254Z,65.21
2023-03-18T07:21:51.024Z,63.85
2023-03-18T07:22:53.389Z,60.30
2023-03-18T07:23:55.559Z,59.77
2023-03-18T07:24:57.251Z,57.71
2023-03-18T07:25:58.905Z,56.76
2023-03-18T07:27:00.603Z,54.94
2023-03-18T07:28:02.286Z,52.23
2023-03-18T07:29:04.674Z,53.66
2023-03-18T07:30:09.525Z,53.30
2023-03-18T07:31:11.110Z,54.40
2023-03-18T07:32:12.777Z,53.15
2023-03-18T07:33:14.329Z,53.98
2023-03-18T07:34:17.807Z,55.65
2023-03-18T07:35:20.676Z,54.38
2023-03-18T07:36:22.248Z,52.57
2023-03-18T07:37:24.220Z,52.71
2023-03-18T07:38:25.806Z,52.35
2023-03-18T07:39:27.643Z,52.12
2023-03-18T07:40:29.200Z,52.03
2023-03-18T07:41:30.830Z,52.98
2023-03-18T07:42:33.634Z,52.64
2023-03-18T07:43:35.294Z,53.13
2023-03-18T07:44:37.658Z,53.49
2023-03-18T07:45:39.299Z,54.23
2023-03-18T07:46:41.305Z,56.17
2023-03-18T07:47:43.498Z,57.20
2023-03-18T07:48:46.686Z,58.35
2023-03-18T07:49:48.192Z,59.69
2023-03-18T07:50:49.977Z,57.64
2023-03-18T07:51:52.276Z,57.64
2023-03-18T07:52:54.025Z,59.93
2023-03-18T07:53:55.638Z,58.31
2023-03-18T07:54:57.329Z,60.32
2023-03-18T07:55:58.869Z,59.98
2023-03-18T07:57:00.452Z,59.30
2023-03-18T07:58:02.302Z,58.46
2023-03-18T07:59:03.956Z,60.69
2023-03-18T08:00:07.611Z,57.49
2023-03-18T08:01:09.489Z,58.78
2023-03-18T08:02:14.406Z,56.97
2023-03-18T08:03:16.711Z,56.56
2023-03-18T08:04:19.528Z,57.93
2023-03-18T08:05:22.116Z,58.20
2023-03-18T08:06:24.080Z,57.74
2023-03-18T08:07:25.751Z,56.90
2023-03-18T08:08:28.121Z,56.81
2023-03-18T08:09:29.731Z,55.81
2023-03-18T08:10:31.880Z,53.42
2023-03-18T08:11:33.608Z,52.30
2023-03-18T08:12:49.345Z,52.29
2023-03-18T08:13:53.972Z,51.75
2023-03-18T08:14:55.508Z,51.45
2023-03-18T08:15:57.440Z,51.88
2023-03-18T08:16:59.040Z,53.56
2023-03-18T08:18:00.794Z,51.39
2023-03-18T08:19:02.469Z,48.75
2023-03-18T08:20:05.286Z,50.08
2023-03-18T08:21:07.877Z,48.92
2023-03-18T08:22:10.128Z,47.56
2023-03-18T08:23:11.759Z,49.40
2023-03-18T08:24:14.035Z,48.93
2023-03-18T08:25:16.163Z,47.82
2023-03-18T08:26:17.698Z,50.11
2023-03-18T08:27:19.297Z,49.89
2023-03-18T08:28:21.010Z,48.82
2023-03-18T08:29:22.703Z,48.82
2023-03-18T08:30:28.636Z,49.49
2023-03-18T08:31:30.363Z,48.04
2023-03-18T08:32:32.710Z,49.74
2023-03-18T08:33:34.303Z,48.19
2023-03-18T08:34:37.032Z,49.30
2023-03-18T08:35:41.545Z,49.72
2023-03-18T08:36:43.123Z,48.49
2023-03-18T08:37:44.802Z,49.58
2023-03-18T08:38:46.394Z,49.08
2023-03-18T08:39:47.981Z,49.05
2023-03-18T08:40:49.566Z,48.77
2023-03-18T08:41:51.245Z,49.38
2023-03-18T08:42:53.318Z,49.65
2023-03-18T08:43:57.472Z,48.91
2023-03-18T08:44:59.379Z,50.09
2023-03-18T08:46:01.101Z,50.94
2023-03-18T08:47:02.831Z,48.84
2023-03-18T08:48:04.842Z,49.89
2023-03-18T08:49:07.760Z,48.83
2023-03-18T08:50:10.480Z,50.58
2023-03-18T08:51:12.346Z,50.83
2023-03-18T08:52:13.919Z,50.64
2023-03-18T08:53:16.476Z,52.01
2023-03-18T08:54:18.656Z,52.14
2023-03-18T08:55:21.476Z,49.88
2023-03-18T08:56:23.078Z,51.93
2023-03-18T08:57:27.892Z,51.04
2023-03-18T08:58:29.865Z,50.71
2023-03-18T08:59:31.461Z,51.98
2023-03-18T09:00:36.577Z,53.13
2023-03-18T09:01:38.469Z,52.76
2023-03-18T09:02:40.041Z,52.88
2023-03-18T09:03:41.636Z,51.89
2023-03-18T09:04:43.863Z,52.45
2023-03-18T09:05:48.629Z,51.94
2023-03-18T09:06:50.226Z,52.59
2023-03-18T09:07:53.252Z,52.59
2023-03-18T09:08:54.849Z,51.87
2023-03-18T09:09:56.471Z,52.90
2023-03-18T09:10:58.729Z,52.41
2023-03-18T09:12:01.183Z,52.13
2023-03-18T09:13:03.395Z,51.29
2023-03-18T09:14:05.261Z,51.60
2023-03-18T09:15:07.574Z,51.16
2023-03-18T09:16:09.136Z,49.80
2023-03-18T09:17:10.940Z,50.58
2023-03-18T09:18:13.749Z,49.55
2023-03-18T09:19:15.300Z,51.45
2023-03-18T09:20:18.025Z,51.16
2023-03-18T09:21:20.310Z,49.83
2023-03-18T09:22:22.843Z,50.81
2023-03-18T09:23:26.310Z,49.79
2023-03-18T09:24:27.867Z,50.65
2023-03-18T09:25:29.514Z,50.21
2023-03-18T09:26:31.054Z,49.49
2023-03-18T09:27:32.587Z,50.07
2023-03-18T09:28:34.221Z,50.61
2023-03-18T09:29:35.802Z,51.75
2023-03-18T09:30:38.151Z,50.33
2023-03-18T09:31:40.390Z,50.64
2023-03-18T09:32:43.501Z,50.11
2023-03-18T09:33:45.174Z,50.56
2023-03-18T09:34:46.826Z,49.56
2023-03-18T09:35:49.546Z,50.36
2023-03-18T09:36:51.576Z,49.73
2023-03-18T09:37:54.228Z,50.60
2023-03-18T09:38:56.105Z,49.10
2023-03-18T09:39:58.399Z,49.49
2023-03-18T09:41:16.491Z,48.29
2023-03-18T09:42:30.166Z,48.98
2023-03-18T09:44:05.470Z,48.33
2023-03-18T09:45:19.825Z,48.35
2023-03-18T09:46:43.272Z,47.83
2023-03-18T09:48:00.335Z,48.54
2023-03-18T09:49:33.195Z,49.38
2023-03-18T09:50:47.874Z,50.17
2023-03-18T09:52:21.650Z,46.65
2023-03-18T09:53:45.290Z,48.18
2023-03-18T09:54:49.609Z,48.68
2023-03-18T09:55:56.045Z,51.18
2023-03-18T09:56:58.506Z,49.95
2023-03-18T09:58:05.172Z,51.71
2023-03-18T09:59:29.569Z,51.04
2023-03-18T10:00:34.187Z,50.06
2023-03-18T10:01:39.335Z,48.15
2023-03-18T10:02:46.826Z,49.54
2023-03-18T10:03:54.575Z,50.80
2023-03-18T10:05:02.756Z,50.35
2023-03-18T10:06:24.765Z,48.80
2023-03-18T10:07:33.678Z,46.93
2023-03-18T10:08:56.480Z,49.94
2023-03-18T10:10:07.786Z,48.54
2023-03-18T10:11:36.222Z,48.99
2023-03-18T10:12:45.262Z,49.02
2023-03-18T10:13:57.247Z,48.99
2023-03-18T10:15:13.655Z,50.02
2023-03-18T10:16:23.721Z,49.45
2023-03-18T10:17:36.044Z,49.75
2023-03-18T10:18:42.106Z,48.13
2023-03-18T10:19:57.521Z,48.31
2023-03-18T10:21:05.097Z,47.95
2023-03-18T10:22:33.201Z,48.35
2023-03-18T10:23:44.717Z,47.21
2023-03-18T10:25:00.387Z,48.99
2023-03-18T10:26:13.029Z,49.26
2023-03-18T10:27:19.280Z,48.51
2023-03-18T10:28:35.784Z,48.13
2023-03-18T10:29:40.682Z,47.71
2023-03-18T10:31:00.699Z,47.99
2023-03-18T10:32:15.718Z,47.22
2023-03-18T10:33:41.787Z,47.74
2023-03-18T10:34:46.185Z,46.93
2023-03-18T10:36:12.500Z,45.86
2023-03-18T10:38:16.086Z,46.29
2023-03-18T10:39:22.665Z,45.55
2023-03-18T10:40:24.999Z,40.92
2023-03-18T10:41:33.703Z,40.81
2023-03-18T10:42:37.893Z,40.20
2023-03-18T10:43:39.871Z,40.22
2023-03-18T10:44:45.093Z,39.78
2023-03-18T10:45:52.055Z,39.22
2023-03-18T10:47:19.048Z,40.39
2023-03-18T10:48:42.384Z,40.90
2023-03-18T10:49:51.138Z,39.42
2023-03-18T10:51:03.722Z,39.25
2023-03-18T10:52:31.139Z,39.45
2023-03-18T10:53:45.881Z,40.28
2023-03-18T10:54:50.643Z,40.27
2023-03-18T10:56:09.471Z,40.57
2023-03-18T10:57:18.192Z,41.75
2023-03-18T10:58:20.130Z,41.89
2023-03-18T10:59:24.785Z,40.51
2023-03-18T11:00:28.444Z,40.40
2023-03-18T11:01:30.203Z,40.45
2023-03-18T11:02:39.049Z,38.86
2023-03-18T11:03:52.630Z,38.59
2023-03-18T11:05:00.068Z,38.78
2023-03-18T11:06:04.749Z,38.58
2023-03-18T11:07:11.255Z,38.01
2023-03-18T11:08:34.295Z,38.18
2023-03-18T11:09:39.533Z,39.04
2023-03-18T11:10:46.132Z,38.08
2023-03-18T11:11:49.868Z,39.34
2023-03-18T11:12:58.723Z,38.03
2023-03-18T11:14:02.741Z,38.35
2023-03-18T11:15:10.775Z,37.92
2023-03-18T11:16:23.155Z,38.32
2023-03-18T11:17:31.707Z,36.83
2023-03-18T11:18:35.736Z,36.77
2023-03-18T11:19:48.638Z,36.81
2023-03-18T11:21:13.041Z,36.75
2023-03-18T11:22:19.360Z,35.96
2023-03-18T11:23:48.584Z,36.17
2023-03-18T11:25:17.285Z,36.23
2023-03-18T11:26:26.330Z,36.16
2023-03-18T11:27:34.453Z,35.27
2023-03-18T11:28:42.231Z,35.26
2023-03-18T11:29:49.725Z,36.18
2023-03-18T11:30:56.177Z,35.88
2023-03-18T11:31:58.933Z,36.35
2023-03-18T11:33:04.560Z,37.89
2023-03-18T11:34:08.862Z,37.74
2023-03-18T11:35:20.303Z,37.29
2023-03-18T11:36:24.151Z,36.87
2023-03-18T11:37:40.799Z,35.61
2023-03-18T11:38:43.278Z,35.99
2023-03-18T11:39:44.783Z,36.09
2023-03-18T11:40:47.008Z,36.62
2023-03-18T11:41:49.352Z,36.22
2023-03-18T11:43:01.775Z,36.17
2023-03-18T11:44:18.595Z,36.79
2023-03-18T11:45:46.383Z,36.80
2023-03-18T11:46:47.982Z,36.47
2023-03-18T11:47:49.571Z,36.19
2023-03-18T11:48:52.221Z,35.28
2023-03-18T11:49:54.443Z,36.07
2023-03-18T11:51:29.486Z,36.71
2023-03-18T11:52:44.126Z,36.77
2023-03-18T11:53:57.768Z,35.92
2023-03-18T11:55:10.951Z,36.03
2023-03-18T11:56:12.416Z,36.38
2023-03-18T11:57:23.508Z,36.76
2023-03-18T11:58:31.438Z,37.32
2023-03-18T11:59:38.471Z,36.94
2023-03-18T12:00:52.655Z,37.17
2023-03-18T12:02:07.852Z,35.79
2023-03-18T12:03:09.774Z,36.26
2023-03-18T12:04:28.075Z,35.34
2023-03-18T12:05:44.614Z,36.14
2023-03-18T12:06:57.284Z,35.19
2023-03-18T12:08:48.018Z,35.96
2023-03-18T12:09:56.891Z,35.79
2023-03-18T12:11:09.723Z,35.38
2023-03-18T12:12:20.696Z,35.54
2023-03-18T12:13:31.711Z,35.21
2023-03-18T12:14:49.804Z,33.35
2023-03-18T12:15:58.182Z,34.08
2023-03-18T12:17:25.687Z,33.58
2023-03-18T12:18:48.658Z,34.96
2023-03-18T12:19:59.177Z,34.57
2023-03-18T12:21:12.110Z,33.64
2023-03-18T12:22:25.395Z,33.28
2023-03-18T12:24:21.570Z,34.31
2023-03-18T12:25:54.289Z,33.80
2023-03-18T12:27:37.277Z,35.05
2023-03-18T12:28:39.185Z,34.40
2023-03-18T12:30:10.002Z,34.96
2023-03-18T12:31:23.808Z,35.98
2023-03-18T12:32:40.421Z,35.13
2023-03-18T12:34:02.881Z,35.81
2023-03-18T12:35:18.804Z,35.26
2023-03-18T12:36:31.268Z,34.68
2023-03-18T12:37:58.974Z,35.11
2023-03-18T12:39:33.977Z,34.78
2023-03-18T12:40:51.252Z,34.47
2023-03-18T12:42:09.181Z,34.55
2023-03-18T12:43:17.366Z,33.88
2023-03-18T12:44:29.468Z,34.34
2023-03-18T12:45:37.844Z,34.59
2023-03-18T12:46:52.397Z,35.54
2023-03-18T12:48:04.552Z,35.03
2023-03-18T12:49:29.697Z,35.28
2023-03-18T12:50:38.409Z,34.83
2023-03-18T12:51:50.270Z,34.96
2023-03-18T12:53:01.013Z,34.38
2023-03-18T12:54:16.771Z,33.68
2023-03-18T12:55:27.208Z,34.14
2023-03-18T12:56:31.228Z,33.89
2023-03-18T12:57:36.053Z,33.99
2023-03-18T12:58:44.390Z,34.69
2023-03-18T12:59:53.272Z,35.05
2023-03-18T13:01:07.035Z,34.44
2023-03-18T13:02:28.541Z,35.96
2023-03-18T13:03:41.830Z,36.64
2023-03-18T13:04:53.785Z,34.74
2023-03-18T13:06:18.778Z,34.54
2023-03-18T13:07:36.359Z,34.80
2023-03-18T13:08:52.424Z,34.25
2023-03-18T13:10:21.733Z,35.14
2023-03-18T13:11:50.740Z,34.59
2023-03-18T13:13:03.811Z,34.90
2023-03-18T13:14:28.929Z,34.89
2023-03-18T13:15:36.806Z,35.27
2023-03-18T13:22:57.799Z,34.29
2023-03-18T13:24:05.315Z,33.92
2023-03-18T13:25:18.942Z,34.84
2023-03-18T13:26:32.271Z,35.08
2023-03-18T13:28:07.681Z,34.17
2023-03-18T13:29:32.360Z,34.45
2023-03-18T13:30:40.315Z,34.83
2023-03-18T13:31:52.463Z,34.96
2023-03-18T13:33:23.214Z,34.28
2023-03-18T13:34:44.223Z,34.55
2023-03-18T13:35:54.879Z,34.27
2023-03-18T13:37:12.341Z,34.58
2023-03-18T13:38:51.436Z,35.75
2023-03-18T13:40:20.731Z,35.24
2023-03-18T13:41:49.260Z,34.48
2023-03-18T13:42:55.892Z,35.36
2023-03-18T13:44:01.013Z,34.57
2023-03-18T13:45:02.567Z,34.39
2023-03-18T13:46:04.802Z,34.38
2023-03-18T13:47:09.213Z,33.93
2023-03-18T13:48:18.473Z,34.20
2023-03-18T13:49:29.979Z,33.70
2023-03-18T13:50:38.008Z,33.98
2023-03-18T13:51:40.018Z,34.28
2023-03-18T13:52:44.148Z,33.31
2023-03-18T13:53:49.685Z,33.94
2023-03-18T13:54:51.779Z,34.06
2023-03-18T13:55:56.214Z,34.06
2023-03-18T13:57:32.475Z,34.06
2023-03-18T13:58:36.428Z,33.73
2023-03-18T13:59:37.901Z,33.45
2023-03-18T14:00:43.195Z,34.80
2023-03-18T14:01:51.069Z,34.25
2023-03-18T14:03:30.684Z,34.58
2023-03-18T14:04:45.953Z,34.63
2023-03-18T14:05:50.377Z,34.11
2023-03-18T14:06:55.701Z,34.17
2023-03-18T14:07:57.447Z,34.53
2023-03-18T14:08:59.046Z,33.91
2023-03-18T14:10:17.164Z,34.51
2023-03-18T14:11:23.273Z,35.10
2023-03-18T14:12:32.689Z,35.61
2023-03-18T14:13:34.340Z,35.54
2023-03-18T14:14:48.084Z,35.36